sensor_id;sensor_type;location;lat;lon;timestamp;P1;durP1;ratioP1;P2;durP2;ratioP2
70543;SDS011;58097;48.364;-1.224;2022-07-12T00:01:03;3.90;;;1.27;;
70543;SDS011;58097;48.364;-1.224;2022-07-12T00:03:29;2.10;;;1.25;;
70543;SDS011;58097;48.364;-1.224;2022-07-12T00:05:55;2.60;;;1.55;;
70543;SDS011;58097;48.364;-1.224;2022-07-12T00:08:21;4.88;;;1.60;;
70543;SDS011;58097;48.364;-1.224;2022-07-12T00:10:47;2.45;;;1.50;;
70543;SDS011;58097;48.364;-1.224;2022-07-12T00:13:13;3.15;;;1.38;;
70543;SDS011;58097;48.364;-1.224;2022-07-12T00:15:38;2.25;;;1.60;;
70543;SDS011;58097;48.364;-1.224;2022-07-12T00:18:04;1.30;;;1.05;;
70543;SDS011;58097;48.364;-1.224;2022-07-12T00:20:29;2.08;;;1.40;;
70543;SDS011;58097;48.364;-1.224;2022-07-12T00:22:55;3.45;;;1.30;;
70543;SDS011;58097;48.364;-1.224;2022-07-12T00:25:20;2.17;;;1.30;;
70543;SDS011;58097;48.364;-1.224;2022-07-12T00:27:46;1.48;;;1.38;;
70543;SDS011;58097;48.364;-1.224;2022-07-12T00:30:12;2.03;;;1.35;;
70543;SDS011;58097;48.364;-1.224;2022-07-12T00:32:37;2.92;;;1.30;;
70543;SDS011;58097;48.364;-1.224;2022-07-12T00:35:03;1.27;;;1.15;;
70543;SDS011;58097;48.364;-1.224;2022-07-12T00:37:30;1.40;;;1.30;;
70543;SDS011;58097;48.364;-1.224;2022-07-12T00:39:57;3.05;;;1.63;;
70543;SDS011;58097;48.364;-1.224;2022-07-12T00:42:23;3.25;;;1.20;;
70543;SDS011;58097;48.364;-1.224;2022-07-12T00:44:50;1.67;;;1.45;;
70543;SDS011;58097;48.364;-1.224;2022-07-12T00:47:18;2.92;;;1.50;;
70543;SDS011;58097;48.364;-1.224;2022-07-12T00:49:53;5.15;;;1.40;;
70543;SDS011;58097;48.364;-1.224;2022-07-12T00:52:19;0.98;;;0.95;;
70543;SDS011;58097;48.364;-1.224;2022-07-12T00:54:45;3.90;;;1.40;;
70543;SDS011;58097;48.364;-1.224;2022-07-12T00:57:10;1.50;;;1.10;;
70543;SDS011;58097;48.364;-1.224;2022-07-12T00:59:36;1.90;;;1.35;;
70543;SDS011;58097;48.364;-1.224;2022-07-12T01:02:02;3.38;;;1.20;;
70543;SDS011;58097;48.364;-1.224;2022-07-12T01:04:27;4.63;;;1.35;;
70543;SDS011;58097;48.364;-1.224;2022-07-12T01:06:54;2.53;;;1.20;;
70543;SDS011;58097;48.364;-1.224;2022-07-12T01:09:20;1.65;;;1.20;;
70543;SDS011;58097;48.364;-1.224;2022-07-12T01:11:45;4.68;;;1.27;;
70543;SDS011;58097;48.364;-1.224;2022-07-12T01:14:11;3.00;;;1.35;;
70543;SDS011;58097;48.364;-1.224;2022-07-12T01:16:38;3.55;;;1.50;;
70543;SDS011;58097;48.364;-1.224;2022-07-12T01:19:05;3.92;;;1.40;;
70543;SDS011;58097;48.364;-1.224;2022-07-12T01:21:33;2.67;;;1.52;;
70543;SDS011;58097;48.364;-1.224;2022-07-12T01:24:04;2.13;;;1.17;;
70543;SDS011;58097;48.364;-1.224;2022-07-12T01:26:32;1.55;;;1.45;;
70543;SDS011;58097;48.364;-1.224;2022-07-12T01:28:57;3.33;;;1.50;;
70543;SDS011;58097;48.364;-1.224;2022-07-12T01:31:24;1.80;;;1.10;;
70543;SDS011;58097;48.364;-1.224;2022-07-12T01:33:50;4.97;;;1.40;;
70543;SDS011;58097;48.364;-1.224;2022-07-12T01:36:16;4.18;;;1.85;;
70543;SDS011;58097;48.364;-1.224;2022-07-12T01:38:42;1.50;;;1.38;;
70543;SDS011;58097;48.364;-1.224;2022-07-12T01:41:08;2.90;;;1.38;;
70543;SDS011;58097;48.364;-1.224;2022-07-12T01:43:34;3.42;;;1.30;;
70543;SDS011;58097;48.364;-1.224;2022-07-12T01:46:00;1.42;;;1.10;;
70543;SDS011;58097;48.364;-1.224;2022-07-12T01:48:25;3.05;;;1.30;;
70543;SDS011;58097;48.364;-1.224;2022-07-12T01:50:51;3.28;;;1.38;;
70543;SDS011;58097;48.364;-1.224;2022-07-12T01:53:17;4.10;;;1.75;;
70543;SDS011;58097;48.364;-1.224;2022-07-12T01:55:43;3.58;;;1.27;;
70543;SDS011;58097;48.364;-1.224;2022-07-12T01:58:09;2.05;;;1.65;;
70543;SDS011;58097;48.364;-1.224;2022-07-12T02:00:38;7.72;;;1.35;;
70543;SDS011;58097;48.364;-1.224;2022-07-12T02:03:04;3.17;;;1.30;;
70543;SDS011;58097;48.364;-1.224;2022-07-12T02:05:29;1.88;;;1.35;;
70543;SDS011;58097;48.364;-1.224;2022-07-12T02:07:55;3.78;;;1.40;;
70543;SDS011;58097;48.364;-1.224;2022-07-12T02:10:21;2.83;;;0.98;;
70543;SDS011;58097;48.364;-1.224;2022-07-12T02:12:47;1.42;;;1.30;;
70543;SDS011;58097;48.364;-1.224;2022-07-12T02:15:13;6.85;;;1.42;;
70543;SDS011;58097;48.364;-1.224;2022-07-12T02:17:38;6.82;;;1.45;;
70543;SDS011;58097;48.364;-1.224;2022-07-12T02:20:04;2.00;;;1.77;;
70543;SDS011;58097;48.364;-1.224;2022-07-12T02:22:31;3.45;;;1.42;;
70543;SDS011;58097;48.364;-1.224;2022-07-12T02:24:57;4.22;;;1.42;;
70543;SDS011;58097;48.364;-1.224;2022-07-12T02:27:22;6.47;;;1.30;;
70543;SDS011;58097;48.364;-1.224;2022-07-12T02:29:48;2.90;;;1.50;;
70543;SDS011;58097;48.364;-1.224;2022-07-12T02:32:13;2.63;;;1.60;;
70543;SDS011;58097;48.364;-1.224;2022-07-12T02:34:39;4.13;;;1.45;;
70543;SDS011;58097;48.364;-1.224;2022-07-12T02:37:04;4.97;;;1.30;;
70543;SDS011;58097;48.364;-1.224;2022-07-12T02:39:30;3.10;;;1.35;;
70543;SDS011;58097;48.364;-1.224;2022-07-12T02:41:58;2.00;;;1.83;;
70543;SDS011;58097;48.364;-1.224;2022-07-12T02:44:24;2.20;;;1.20;;
70543;SDS011;58097;48.364;-1.224;2022-07-12T02:46:50;5.75;;;1.65;;
70543;SDS011;58097;48.364;-1.224;2022-07-12T02:49:15;2.35;;;1.13;;
70543;SDS011;58097;48.364;-1.224;2022-07-12T02:51:41;3.08;;;1.40;;
70543;SDS011;58097;48.364;-1.224;2022-07-12T02:54:06;3.60;;;1.13;;
70543;SDS011;58097;48.364;-1.224;2022-07-12T02:56:32;2.10;;;1.17;;
70543;SDS011;58097;48.364;-1.224;2022-07-12T02:58:57;1.38;;;1.27;;
70543;SDS011;58097;48.364;-1.224;2022-07-12T03:01:23;3.58;;;1.95;;
70543;SDS011;58097;48.364;-1.224;2022-07-12T03:03:48;3.95;;;1.50;;
70543;SDS011;58097;48.364;-1.224;2022-07-12T03:06:14;2.42;;;1.48;;
70543;SDS011;58097;48.364;-1.224;2022-07-12T03:08:40;4.40;;;1.77;;
70543;SDS011;58097;48.364;-1.224;2022-07-12T03:11:06;1.27;;;1.17;;
70543;SDS011;58097;48.364;-1.224;2022-07-12T03:13:31;2.45;;;1.27;;
70543;SDS011;58097;48.364;-1.224;2022-07-12T03:15:57;2.53;;;1.38;;
70543;SDS011;58097;48.364;-1.224;2022-07-12T03:18:22;4.13;;;1.67;;
70543;SDS011;58097;48.364;-1.224;2022-07-12T03:20:48;3.35;;;1.63;;
70543;SDS011;58097;48.364;-1.224;2022-07-12T03:23:13;1.95;;;1.50;;
70543;SDS011;58097;48.364;-1.224;2022-07-12T03:25:39;3.08;;;1.35;;
70543;SDS011;58097;48.364;-1.224;2022-07-12T03:28:05;3.35;;;1.63;;
70543;SDS011;58097;48.364;-1.224;2022-07-12T03:30:30;3.47;;;1.48;;
70543;SDS011;58097;48.364;-1.224;2022-07-12T03:32:56;3.78;;;1.58;;
70543;SDS011;58097;48.364;-1.224;2022-07-12T03:35:21;3.58;;;1.60;;
70543;SDS011;58097;48.364;-1.224;2022-07-12T03:37:51;3.42;;;1.90;;
70543;SDS011;58097;48.364;-1.224;2022-07-12T03:40:18;3.00;;;1.33;;
70543;SDS011;58097;48.364;-1.224;2022-07-12T03:42:45;3.08;;;1.55;;
70543;SDS011;58097;48.364;-1.224;2022-07-12T03:45:11;2.05;;;1.42;;
70543;SDS011;58097;48.364;-1.224;2022-07-12T03:47:38;2.30;;;1.20;;
70543;SDS011;58097;48.364;-1.224;2022-07-12T03:50:05;1.40;;;1.30;;
70543;SDS011;58097;48.364;-1.224;2022-07-12T03:52:32;2.42;;;1.55;;
70543;SDS011;58097;48.364;-1.224;2022-07-12T03:54:58;2.88;;;1.50;;
70543;SDS011;58097;48.364;-1.224;2022-07-12T03:57:24;1.63;;;1.30;;
70543;SDS011;58097;48.364;-1.224;2022-07-12T03:59:51;3.60;;;1.50;;
70543;SDS011;58097;48.364;-1.224;2022-07-12T04:02:17;2.00;;;1.20;;
70543;SDS011;58097;48.364;-1.224;2022-07-12T04:04:46;2.15;;;1.33;;
70543;SDS011;58097;48.364;-1.224;2022-07-12T04:07:11;6.57;;;1.88;;
70543;SDS011;58097;48.364;-1.224;2022-07-12T04:09:37;1.65;;;1.45;;
70543;SDS011;58097;48.364;-1.224;2022-07-12T04:12:03;5.07;;;1.70;;
70543;SDS011;58097;48.364;-1.224;2022-07-12T04:14:29;3.58;;;1.50;;
70543;SDS011;58097;48.364;-1.224;2022-07-12T04:16:55;2.22;;;1.60;;
70543;SDS011;58097;48.364;-1.224;2022-07-12T04:19:21;1.92;;;1.42;;
70543;SDS011;58097;48.364;-1.224;2022-07-12T04:21:53;4.00;;;1.70;;
70543;SDS011;58097;48.364;-1.224;2022-07-12T04:24:20;4.00;;;1.50;;
70543;SDS011;58097;48.364;-1.224;2022-07-12T04:26:47;4.30;;;1.80;;
70543;SDS011;58097;48.364;-1.224;2022-07-12T04:29:14;2.25;;;1.60;;
70543;SDS011;58097;48.364;-1.224;2022-07-12T04:31:40;5.05;;;1.45;;
70543;SDS011;58097;48.364;-1.224;2022-07-12T04:34:06;2.90;;;1.60;;
70543;SDS011;58097;48.364;-1.224;2022-07-12T04:36:32;1.83;;;1.40;;
70543;SDS011;58097;48.364;-1.224;2022-07-12T04:38:58;2.78;;;1.50;;
70543;SDS011;58097;48.364;-1.224;2022-07-12T04:41:23;3.63;;;1.52;;
70543;SDS011;58097;48.364;-1.224;2022-07-12T04:43:49;2.72;;;1.60;;
70543;SDS011;58097;48.364;-1.224;2022-07-12T04:46:15;5.75;;;1.60;;
70543;SDS011;58097;48.364;-1.224;2022-07-12T04:48:41;3.95;;;1.80;;
70543;SDS011;58097;48.364;-1.224;2022-07-12T04:51:06;5.50;;;1.80;;
70543;SDS011;58097;48.364;-1.224;2022-07-12T04:53:32;7.32;;;1.70;;
70543;SDS011;58097;48.364;-1.224;2022-07-12T04:55:58;3.63;;;1.70;;
70543;SDS011;58097;48.364;-1.224;2022-07-12T04:58:24;3.53;;;1.65;;
70543;SDS011;58097;48.364;-1.224;2022-07-12T05:00:49;2.15;;;1.67;;
70543;SDS011;58097;48.364;-1.224;2022-07-12T05:03:16;2.17;;;1.65;;
70543;SDS011;58097;48.364;-1.224;2022-07-12T05:05:41;1.48;;;1.17;;
70543;SDS011;58097;48.364;-1.224;2022-07-12T05:08:07;2.30;;;1.52;;
70543;SDS011;58097;48.364;-1.224;2022-07-12T05:10:33;5.28;;;1.83;;
70543;SDS011;58097;48.364;-1.224;2022-07-12T05:12:58;5.93;;;1.92;;
70543;SDS011;58097;48.364;-1.224;2022-07-12T05:15:24;5.28;;;1.55;;
70543;SDS011;58097;48.364;-1.224;2022-07-12T05:17:52;5.35;;;1.75;;
70543;SDS011;58097;48.364;-1.224;2022-07-12T05:20:21;2.28;;;1.65;;
70543;SDS011;58097;48.364;-1.224;2022-07-12T05:22:47;4.85;;;2.15;;
70543;SDS011;58097;48.364;-1.224;2022-07-12T05:25:12;5.57;;;1.75;;
70543;SDS011;58097;48.364;-1.224;2022-07-12T05:27:38;2.25;;;1.67;;
70543;SDS011;58097;48.364;-1.224;2022-07-12T05:30:03;5.30;;;1.40;;
70543;SDS011;58097;48.364;-1.224;2022-07-12T05:32:30;3.22;;;1.60;;
70543;SDS011;58097;48.364;-1.224;2022-07-12T05:34:55;2.45;;;1.40;;
70543;SDS011;58097;48.364;-1.224;2022-07-12T05:37:21;5.78;;;1.95;;
70543;SDS011;58097;48.364;-1.224;2022-07-12T05:39:50;3.33;;;1.65;;
70543;SDS011;58097;48.364;-1.224;2022-07-12T05:42:16;3.47;;;1.50;;
70543;SDS011;58097;48.364;-1.224;2022-07-12T05:44:41;3.78;;;1.52;;
70543;SDS011;58097;48.364;-1.224;2022-07-12T05:47:07;3.65;;;2.13;;
70543;SDS011;58097;48.364;-1.224;2022-07-12T05:49:33;6.45;;;1.70;;
70543;SDS011;58097;48.364;-1.224;2022-07-12T05:51:58;2.05;;;1.20;;
70543;SDS011;58097;48.364;-1.224;2022-07-12T05:54:44;6.50;;;1.70;;
70543;SDS011;58097;48.364;-1.224;2022-07-12T05:57:09;4.45;;;1.60;;
70543;SDS011;58097;48.364;-1.224;2022-07-12T05:59:36;5.85;;;1.60;;
70543;SDS011;58097;48.364;-1.224;2022-07-12T06:02:02;4.18;;;1.30;;
70543;SDS011;58097;48.364;-1.224;2022-07-12T06:04:28;3.47;;;1.50;;
70543;SDS011;58097;48.364;-1.224;2022-07-12T06:06:54;8.95;;;2.17;;
70543;SDS011;58097;48.364;-1.224;2022-07-12T06:09:20;6.10;;;1.42;;
70543;SDS011;58097;48.364;-1.224;2022-07-12T06:11:45;4.00;;;2.10;;
70543;SDS011;58097;48.364;-1.224;2022-07-12T06:14:11;5.63;;;1.95;;
70543;SDS011;58097;48.364;-1.224;2022-07-12T06:16:36;5.68;;;1.70;;
70543;SDS011;58097;48.364;-1.224;2022-07-12T06:19:02;5.32;;;1.75;;
70543;SDS011;58097;48.364;-1.224;2022-07-12T06:21:27;5.43;;;2.03;;
70543;SDS011;58097;48.364;-1.224;2022-07-12T06:23:53;7.55;;;2.08;;
70543;SDS011;58097;48.364;-1.224;2022-07-12T06:26:19;6.10;;;1.60;;
70543;SDS011;58097;48.364;-1.224;2022-07-12T06:28:44;5.13;;;2.00;;
70543;SDS011;58097;48.364;-1.224;2022-07-12T06:31:10;4.45;;;1.95;;
70543;SDS011;58097;48.364;-1.224;2022-07-12T06:33:35;3.60;;;1.45;;
70543;SDS011;58097;48.364;-1.224;2022-07-12T06:36:01;6.20;;;1.75;;
70543;SDS011;58097;48.364;-1.224;2022-07-12T06:38:27;4.07;;;1.75;;
70543;SDS011;58097;48.364;-1.224;2022-07-12T06:40:52;2.55;;;1.67;;
70543;SDS011;58097;48.364;-1.224;2022-07-12T06:43:18;3.72;;;1.27;;
70543;SDS011;58097;48.364;-1.224;2022-07-12T06:45:43;4.68;;;1.30;;
70543;SDS011;58097;48.364;-1.224;2022-07-12T06:48:09;9.27;;;1.70;;
70543;SDS011;58097;48.364;-1.224;2022-07-12T06:50:35;3.75;;;1.60;;
70543;SDS011;58097;48.364;-1.224;2022-07-12T06:53:01;4.13;;;1.23;;
70543;SDS011;58097;48.364;-1.224;2022-07-12T06:55:26;4.45;;;1.17;;
70543;SDS011;58097;48.364;-1.224;2022-07-12T06:57:52;5.03;;;1.40;;
70543;SDS011;58097;48.364;-1.224;2022-07-12T07:00:17;4.22;;;1.45;;
70543;SDS011;58097;48.364;-1.224;2022-07-12T07:02:43;4.38;;;1.50;;
70543;SDS011;58097;48.364;-1.224;2022-07-12T07:05:09;3.47;;;1.40;;
70543;SDS011;58097;48.364;-1.224;2022-07-12T07:07:36;6.35;;;1.80;;
70543;SDS011;58097;48.364;-1.224;2022-07-12T07:10:02;3.30;;;1.17;;
70543;SDS011;58097;48.364;-1.224;2022-07-12T07:12:27;6.43;;;1.70;;
70543;SDS011;58097;48.364;-1.224;2022-07-12T07:14:53;6.18;;;1.17;;
70543;SDS011;58097;48.364;-1.224;2022-07-12T07:17:19;3.88;;;1.30;;
70543;SDS011;58097;48.364;-1.224;2022-07-12T07:19:45;7.25;;;1.15;;
70543;SDS011;58097;48.364;-1.224;2022-07-12T07:22:12;7.57;;;1.17;;
70543;SDS011;58097;48.364;-1.224;2022-07-12T07:24:38;2.50;;;1.20;;
70543;SDS011;58097;48.364;-1.224;2022-07-12T07:27:05;5.63;;;1.40;;
70543;SDS011;58097;48.364;-1.224;2022-07-12T07:29:30;6.22;;;1.45;;
70543;SDS011;58097;48.364;-1.224;2022-07-12T07:32:16;5.05;;;1.40;;
70543;SDS011;58097;48.364;-1.224;2022-07-12T07:34:42;6.18;;;1.20;;
70543;SDS011;58097;48.364;-1.224;2022-07-12T07:37:07;7.57;;;1.73;;
70543;SDS011;58097;48.364;-1.224;2022-07-12T07:39:34;3.47;;;1.23;;
70543;SDS011;58097;48.364;-1.224;2022-07-12T07:41:59;4.45;;;1.58;;
70543;SDS011;58097;48.364;-1.224;2022-07-12T07:44:25;4.75;;;1.15;;
70543;SDS011;58097;48.364;-1.224;2022-07-12T07:46:50;8.65;;;1.67;;
70543;SDS011;58097;48.364;-1.224;2022-07-12T07:49:16;5.30;;;1.30;;
70543;SDS011;58097;48.364;-1.224;2022-07-12T07:51:41;10.68;;;1.75;;
70543;SDS011;58097;48.364;-1.224;2022-07-12T07:54:07;5.18;;;1.38;;
70543;SDS011;58097;48.364;-1.224;2022-07-12T07:56:33;11.13;;;1.38;;
70543;SDS011;58097;48.364;-1.224;2022-07-12T07:58:58;3.40;;;1.20;;
70543;SDS011;58097;48.364;-1.224;2022-07-12T08:01:24;2.47;;;1.38;;
70543;SDS011;58097;48.364;-1.224;2022-07-12T08:04:09;5.47;;;1.05;;
70543;SDS011;58097;48.364;-1.224;2022-07-12T08:06:35;6.57;;;1.30;;
70543;SDS011;58097;48.364;-1.224;2022-07-12T08:09:01;4.30;;;1.45;;
70543;SDS011;58097;48.364;-1.224;2022-07-12T08:11:27;3.53;;;1.38;;
70543;SDS011;58097;48.364;-1.224;2022-07-12T08:13:52;6.70;;;1.27;;
70543;SDS011;58097;48.364;-1.224;2022-07-12T08:16:18;6.82;;;1.38;;
70543;SDS011;58097;48.364;-1.224;2022-07-12T08:18:44;6.97;;;1.45;;
70543;SDS011;58097;48.364;-1.224;2022-07-12T08:21:09;7.15;;;1.17;;
70543;SDS011;58097;48.364;-1.224;2022-07-12T08:23:35;5.28;;;1.08;;
70543;SDS011;58097;48.364;-1.224;2022-07-12T08:26:00;4.35;;;1.10;;
70543;SDS011;58097;48.364;-1.224;2022-07-12T08:28:26;1.77;;;1.10;;
70543;SDS011;58097;48.364;-1.224;2022-07-12T08:30:51;7.43;;;1.48;;
70543;SDS011;58097;48.364;-1.224;2022-07-12T08:33:17;3.28;;;1.27;;
70543;SDS011;58097;48.364;-1.224;2022-07-12T08:35:42;4.35;;;1.08;;
70543;SDS011;58097;48.364;-1.224;2022-07-12T08:38:08;6.07;;;1.10;;
70543;SDS011;58097;48.364;-1.224;2022-07-12T08:40:35;3.22;;;1.08;;
70543;SDS011;58097;48.364;-1.224;2022-07-12T08:43:01;8.80;;;1.15;;
70543;SDS011;58097;48.364;-1.224;2022-07-12T08:45:27;2.92;;;1.30;;
70543;SDS011;58097;48.364;-1.224;2022-07-12T08:47:52;3.78;;;1.10;;
70543;SDS011;58097;48.364;-1.224;2022-07-12T08:50:18;2.55;;;1.20;;
70543;SDS011;58097;48.364;-1.224;2022-07-12T08:52:47;1.83;;;1.20;;
70543;SDS011;58097;48.364;-1.224;2022-07-12T08:58:03;1.63;;;1.02;;
70543;SDS011;58097;48.364;-1.224;2022-07-12T09:00:33;3.63;;;1.23;;
70543;SDS011;58097;48.364;-1.224;2022-07-12T09:03:00;2.60;;;1.02;;
70543;SDS011;58097;48.364;-1.224;2022-07-12T09:05:28;6.53;;;1.20;;
70543;SDS011;58097;48.364;-1.224;2022-07-12T09:08:09;1.95;;;1.33;;
70543;SDS011;58097;48.364;-1.224;2022-07-12T09:10:51;5.03;;;1.33;;
70543;SDS011;58097;48.364;-1.224;2022-07-12T09:13:17;4.82;;;1.13;;
70543;SDS011;58097;48.364;-1.224;2022-07-12T09:15:43;7.28;;;1.65;;
70543;SDS011;58097;48.364;-1.224;2022-07-12T09:18:11;2.70;;;1.02;;
70543;SDS011;58097;48.364;-1.224;2022-07-12T09:20:40;1.30;;;1.20;;
70543;SDS011;58097;48.364;-1.224;2022-07-12T09:23:10;5.43;;;0.82;;
70543;SDS011;58097;48.364;-1.224;2022-07-12T09:25:37;2.80;;;0.88;;
70543;SDS011;58097;48.364;-1.224;2022-07-12T09:28:04;4.03;;;0.95;;
70543;SDS011;58097;48.364;-1.224;2022-07-12T09:30:31;0.95;;;0.82;;
70543;SDS011;58097;48.364;-1.224;2022-07-12T09:32:58;2.50;;;1.00;;
70543;SDS011;58097;48.364;-1.224;2022-07-12T09:38:34;2.83;;;1.02;;
70543;SDS011;58097;48.364;-1.224;2022-07-12T09:41:02;4.87;;;0.97;;
70543;SDS011;58097;48.364;-1.224;2022-07-12T09:43:29;4.35;;;0.90;;
70543;SDS011;58097;48.364;-1.224;2022-07-12T09:45:55;2.38;;;1.17;;
70543;SDS011;58097;48.364;-1.224;2022-07-12T09:48:21;3.78;;;0.88;;
70543;SDS011;58097;48.364;-1.224;2022-07-12T09:50:48;1.98;;;0.95;;
70543;SDS011;58097;48.364;-1.224;2022-07-12T09:53:17;3.22;;;1.20;;
70543;SDS011;58097;48.364;-1.224;2022-07-12T09:55:48;2.65;;;1.00;;
70543;SDS011;58097;48.364;-1.224;2022-07-12T09:58:17;1.98;;;1.05;;
70543;SDS011;58097;48.364;-1.224;2022-07-12T10:00:47;1.75;;;1.00;;
70543;SDS011;58097;48.364;-1.224;2022-07-12T10:03:17;9.30;;;1.13;;
70543;SDS011;58097;48.364;-1.224;2022-07-12T10:05:49;3.28;;;1.00;;
70543;SDS011;58097;48.364;-1.224;2022-07-12T10:08:17;5.47;;;1.42;;
70543;SDS011;58097;48.364;-1.224;2022-07-12T10:10:46;2.83;;;1.30;;
70543;SDS011;58097;48.364;-1.224;2022-07-12T10:13:13;2.17;;;1.23;;
70543;SDS011;58097;48.364;-1.224;2022-07-12T10:15:40;4.90;;;0.98;;
70543;SDS011;58097;48.364;-1.224;2022-07-12T10:18:08;1.50;;;1.08;;
70543;SDS011;58097;48.364;-1.224;2022-07-12T10:20:41;1.35;;;0.95;;
70543;SDS011;58097;48.364;-1.224;2022-07-12T10:26:23;4.72;;;1.10;;
70543;SDS011;58097;48.364;-1.224;2022-07-12T10:28:55;1.98;;;1.10;;
70543;SDS011;58097;48.364;-1.224;2022-07-12T10:31:30;1.52;;;0.93;;
70543;SDS011;58097;48.364;-1.224;2022-07-12T10:39:34;7.55;;;1.17;;
70543;SDS011;58097;48.364;-1.224;2022-07-12T10:42:14;3.20;;;0.88;;
70543;SDS011;58097;48.364;-1.224;2022-07-12T10:44:43;5.95;;;1.25;;
70543;SDS011;58097;48.364;-1.224;2022-07-12T10:47:11;2.45;;;1.35;;
70543;SDS011;58097;48.364;-1.224;2022-07-12T10:49:42;2.78;;;1.27;;
70543;SDS011;58097;48.364;-1.224;2022-07-12T10:52:16;3.65;;;0.90;;
70543;SDS011;58097;48.364;-1.224;2022-07-12T10:55:15;1.60;;;1.10;;
70543;SDS011;58097;48.364;-1.224;2022-07-12T10:57:44;3.45;;;1.27;;
70543;SDS011;58097;48.364;-1.224;2022-07-12T11:00:16;3.13;;;1.05;;
70543;SDS011;58097;48.364;-1.224;2022-07-12T11:02:42;2.70;;;0.93;;
70543;SDS011;58097;48.364;-1.224;2022-07-12T11:05:08;1.88;;;1.00;;
70543;SDS011;58097;48.364;-1.224;2022-07-12T11:07:34;2.42;;;1.05;;
70543;SDS011;58097;48.364;-1.224;2022-07-12T11:10:00;3.58;;;1.15;;
70543;SDS011;58097;48.364;-1.224;2022-07-12T11:12:29;3.88;;;1.00;;
70543;SDS011;58097;48.364;-1.224;2022-07-12T11:14:58;3.88;;;1.05;;
70543;SDS011;58097;48.364;-1.224;2022-07-12T11:17:25;3.08;;;1.25;;
70543;SDS011;58097;48.364;-1.224;2022-07-12T11:20:03;3.10;;;1.20;;
70543;SDS011;58097;48.364;-1.224;2022-07-12T11:22:34;4.10;;;1.10;;
70543;SDS011;58097;48.364;-1.224;2022-07-12T11:25:02;3.67;;;0.80;;
70543;SDS011;58097;48.364;-1.224;2022-07-12T11:27:29;2.83;;;1.02;;
70543;SDS011;58097;48.364;-1.224;2022-07-12T11:29:57;3.65;;;1.23;;
70543;SDS011;58097;48.364;-1.224;2022-07-12T11:37:58;3.33;;;1.20;;
70543;SDS011;58097;48.364;-1.224;2022-07-12T11:40:24;2.50;;;1.00;;
70543;SDS011;58097;48.364;-1.224;2022-07-12T11:42:55;3.78;;;1.20;;
70543;SDS011;58097;48.364;-1.224;2022-07-12T11:45:25;3.15;;;0.90;;
70543;SDS011;58097;48.364;-1.224;2022-07-12T11:47:52;4.72;;;1.20;;
70543;SDS011;58097;48.364;-1.224;2022-07-12T11:50:18;1.70;;;1.00;;
70543;SDS011;58097;48.364;-1.224;2022-07-12T11:52:45;2.30;;;0.90;;
70543;SDS011;58097;48.364;-1.224;2022-07-12T11:55:11;3.40;;;0.90;;
70543;SDS011;58097;48.364;-1.224;2022-07-12T11:57:36;5.75;;;1.35;;
70543;SDS011;58097;48.364;-1.224;2022-07-12T12:02:52;2.50;;;0.80;;
70543;SDS011;58097;48.364;-1.224;2022-07-12T12:05:18;5.70;;;1.10;;
70543;SDS011;58097;48.364;-1.224;2022-07-12T12:07:44;4.97;;;1.05;;
70543;SDS011;58097;48.364;-1.224;2022-07-12T12:10:12;1.33;;;1.00;;
70543;SDS011;58097;48.364;-1.224;2022-07-12T12:15:26;2.67;;;0.70;;
70543;SDS011;58097;48.364;-1.224;2022-07-12T12:18:03;6.38;;;1.10;;
70543;SDS011;58097;48.364;-1.224;2022-07-12T12:20:37;0.95;;;0.70;;
70543;SDS011;58097;48.364;-1.224;2022-07-12T12:23:04;2.63;;;0.70;;
70543;SDS011;58097;48.364;-1.224;2022-07-12T12:25:32;1.55;;;0.77;;
70543;SDS011;58097;48.364;-1.224;2022-07-12T12:27:59;2.17;;;0.70;;
70543;SDS011;58097;48.364;-1.224;2022-07-12T12:30:27;4.05;;;0.80;;
70543;SDS011;58097;48.364;-1.224;2022-07-12T12:32:55;4.00;;;1.13;;
70543;SDS011;58097;48.364;-1.224;2022-07-12T12:35:31;1.48;;;1.00;;
70543;SDS011;58097;48.364;-1.224;2022-07-12T12:40:49;2.47;;;0.90;;
70543;SDS011;58097;48.364;-1.224;2022-07-12T12:43:19;1.15;;;0.60;;
70543;SDS011;58097;48.364;-1.224;2022-07-12T12:48:31;3.05;;;0.80;;
70543;SDS011;58097;48.364;-1.224;2022-07-12T12:53:44;0.88;;;0.70;;
70543;SDS011;58097;48.364;-1.224;2022-07-12T12:56:22;1.63;;;0.82;;
70543;SDS011;58097;48.364;-1.224;2022-07-12T12:58:48;1.88;;;0.63;;
70543;SDS011;58097;48.364;-1.224;2022-07-12T13:01:13;2.67;;;0.80;;
70543;SDS011;58097;48.364;-1.224;2022-07-12T13:03:39;2.15;;;0.90;;
70543;SDS011;58097;48.364;-1.224;2022-07-12T13:06:05;3.88;;;0.80;;
70543;SDS011;58097;48.364;-1.224;2022-07-12T13:08:30;2.80;;;0.80;;
70543;SDS011;58097;48.364;-1.224;2022-07-12T13:10:56;1.25;;;0.60;;
70543;SDS011;58097;48.364;-1.224;2022-07-12T13:13:42;1.48;;;0.60;;
70543;SDS011;58097;48.364;-1.224;2022-07-12T13:16:07;1.65;;;0.68;;
70543;SDS011;58097;48.364;-1.224;2022-07-12T13:18:33;5.38;;;0.70;;
70543;SDS011;58097;48.364;-1.224;2022-07-12T13:20:59;1.55;;;0.70;;
70543;SDS011;58097;48.364;-1.224;2022-07-12T13:23:24;3.28;;;0.93;;
70543;SDS011;58097;48.364;-1.224;2022-07-12T13:25:50;2.72;;;1.10;;
70543;SDS011;58097;48.364;-1.224;2022-07-12T13:28:15;1.63;;;0.90;;
70543;SDS011;58097;48.364;-1.224;2022-07-12T13:30:41;0.90;;;0.60;;
70543;SDS011;58097;48.364;-1.224;2022-07-12T13:33:06;1.23;;;0.82;;
70543;SDS011;58097;48.364;-1.224;2022-07-12T13:35:32;1.52;;;0.80;;
70543;SDS011;58097;48.364;-1.224;2022-07-12T13:37:58;1.38;;;0.90;;
70543;SDS011;58097;48.364;-1.224;2022-07-12T13:40:23;3.50;;;0.63;;
70543;SDS011;58097;48.364;-1.224;2022-07-12T13:42:50;1.67;;;0.60;;
70543;SDS011;58097;48.364;-1.224;2022-07-12T13:45:17;4.10;;;0.98;;
70543;SDS011;58097;48.364;-1.224;2022-07-12T13:47:45;5.25;;;0.98;;
70543;SDS011;58097;48.364;-1.224;2022-07-12T13:50:14;3.17;;;0.68;;
70543;SDS011;58097;48.364;-1.224;2022-07-12T13:52:41;1.50;;;0.60;;
70543;SDS011;58097;48.364;-1.224;2022-07-12T13:55:11;1.42;;;0.90;;
70543;SDS011;58097;48.364;-1.224;2022-07-12T13:57:38;1.27;;;0.80;;
70543;SDS011;58097;48.364;-1.224;2022-07-12T14:00:11;1.55;;;0.60;;
70543;SDS011;58097;48.364;-1.224;2022-07-12T14:02:39;1.15;;;0.70;;
70543;SDS011;58097;48.364;-1.224;2022-07-12T14:05:06;1.60;;;0.70;;
70543;SDS011;58097;48.364;-1.224;2022-07-12T14:07:33;1.80;;;0.57;;
70543;SDS011;58097;48.364;-1.224;2022-07-12T14:09:59;1.40;;;0.80;;
70543;SDS011;58097;48.364;-1.224;2022-07-12T14:12:25;3.75;;;0.75;;
70543;SDS011;58097;48.364;-1.224;2022-07-12T14:14:51;1.70;;;0.80;;
70543;SDS011;58097;48.364;-1.224;2022-07-12T14:17:38;2.42;;;0.73;;
70543;SDS011;58097;48.364;-1.224;2022-07-12T14:20:05;1.55;;;0.90;;
70543;SDS011;58097;48.364;-1.224;2022-07-12T14:22:31;1.50;;;0.30;;
70543;SDS011;58097;48.364;-1.224;2022-07-12T14:24:57;2.63;;;0.60;;
70543;SDS011;58097;48.364;-1.224;2022-07-12T14:27:23;1.10;;;0.63;;
70543;SDS011;58097;48.364;-1.224;2022-07-12T14:29:48;0.77;;;0.68;;
70543;SDS011;58097;48.364;-1.224;2022-07-12T14:32:14;3.85;;;0.70;;
70543;SDS011;58097;48.364;-1.224;2022-07-12T14:34:40;1.80;;;0.70;;
70543;SDS011;58097;48.364;-1.224;2022-07-12T14:37:06;4.50;;;0.88;;
70543;SDS011;58097;48.364;-1.224;2022-07-12T14:39:32;3.00;;;0.70;;
70543;SDS011;58097;48.364;-1.224;2022-07-12T14:41:57;1.83;;;0.80;;
70543;SDS011;58097;48.364;-1.224;2022-07-12T14:44:24;2.22;;;0.70;;
70543;SDS011;58097;48.364;-1.224;2022-07-12T14:46:51;1.17;;;0.70;;
70543;SDS011;58097;48.364;-1.224;2022-07-12T14:49:18;2.33;;;0.65;;
70543;SDS011;58097;48.364;-1.224;2022-07-12T14:51:44;2.80;;;0.90;;
70543;SDS011;58097;48.364;-1.224;2022-07-12T14:54:10;3.13;;;0.70;;
70543;SDS011;58097;48.364;-1.224;2022-07-12T14:56:36;0.85;;;0.70;;
70543;SDS011;58097;48.364;-1.224;2022-07-12T14:59:02;2.90;;;0.70;;
70543;SDS011;58097;48.364;-1.224;2022-07-12T15:01:27;1.75;;;0.63;;
70543;SDS011;58097;48.364;-1.224;2022-07-12T15:03:53;1.45;;;0.77;;
70543;SDS011;58097;48.364;-1.224;2022-07-12T15:06:19;1.10;;;0.82;;